Time;durP1;ratioP1;P1;durP2;ratioP2;P2;SDS_P1;SDS_P2;PMS_P1;PMS_P2;Temp;Humidity;BMP_temperature;BMP_pressure;BME280_temperature;BME280_humidity;BME280_pressure;Samples;Min_cycle;Max_cycle;Signal;HPM_P1;HPM_P2
2023/10/24 00:01:26;;;;;;;16.87;10.00;;;;;;;10.23;97.10;100561.41;4989084;28;20217;-72
2023/10/24 00:03:52;;;;;;;16.43;9.67;;;;;;;10.24;97.33;100562.97;4989286;28;20230;-71
2023/10/24 00:06:19;;;;;;;18.23;10.47;;;;;;;10.24;97.07;100553.19;4988197;28;20293;-72
2023/10/24 00:08:45;;;;;;;18.43;9.47;;;;;;;10.26;98.01;100550.22;4988480;28;20206;-71
2023/10/24 00:11:12;;;;;;;20.93;10.27;;;;;;;10.27;97.68;100549.13;4992037;28;20217;-71
2023/10/24 00:13:39;;;;;;;18.17;9.50;;;;;;;10.28;97.71;100548.03;4989675;28;20227;-71
2023/10/24 00:16:06;;;;;;;16.37;9.40;;;;;;;10.29;98.17;100550.34;4989197;28;20208;-70
2023/10/24 00:18:32;;;;;;;16.93;8.73;;;;;;;10.31;97.15;100542.09;4989859;28;20221;-70
2023/10/24 00:20:59;;;;;;;16.77;9.40;;;;;;;10.32;97.54;100539.16;4986344;28;20209;-72
2023/10/24 00:23:28;;;;;;;19.00;9.47;;;;;;;10.33;98.03;100524.06;4985585;28;20606;-70
2023/10/24 00:25:55;;;;;;;16.57;10.00;;;;;;;10.35;98.33;100527.16;4989333;28;20228;-71
2023/10/24 00:28:21;;;;;;;15.97;10.00;;;;;;;10.37;97.77;100522.34;4988444;28;20212;-71
2023/10/24 00:30:49;;;;;;;15.80;9.53;;;;;;;10.37;98.03;100517.06;4990087;28;20202;-71
2023/10/24 00:33:15;;;;;;;20.13;9.67;;;;;;;10.38;97.44;100511.44;4985568;28;20230;-71
2023/10/24 00:35:43;;;;;;;12.10;8.67;;;;;;;10.40;97.71;100511.13;4991231;28;20735;-70
2023/10/24 00:38:09;;;;;;;14.57;9.13;;;;;;;10.40;97.74;100511.88;4989240;28;20248;-71
2023/10/24 00:40:36;;;;;;;15.13;8.87;;;;;;;10.42;98.70;100514.22;4991540;28;20221;-70
2023/10/24 00:43:04;;;;;;;15.30;8.07;;;;;;;10.43;97.94;100502.53;4990216;28;20220;-72
2023/10/24 00:45:30;;;;;;;17.00;8.27;;;;;;;10.45;98.33;100500.38;4987727;28;20206;-70
2023/10/24 00:47:58;;;;;;;16.73;9.17;;;;;;;10.45;97.87;100493.22;4989451;28;20653;-72
2023/10/24 00:50:25;;;;;;;16.27;8.40;;;;;;;10.47;97.60;100491.03;4984085;28;20209;-71
2023/10/24 00:52:51;;;;;;;14.27;8.50;;;;;;;10.48;97.57;100482.00;4989178;28;20592;-71
2023/10/24 00:55:18;;;;;;;19.27;8.50;;;;;;;10.49;97.29;100483.53;4988586;28;20217;-71
2023/10/24 00:57:45;;;;;;;17.60;7.83;;;;;;;10.50;98.10;100485.09;5008802;28;20543;-71
2023/10/24 01:00:13;;;;;;;14.13;8.47;;;;;;;10.51;98.06;100476.06;4990923;28;20218;-71
2023/10/24 01:02:40;;;;;;;13.10;8.43;;;;;;;10.52;97.40;100482.13;5002019;28;20495;-71
2023/10/24 01:05:08;;;;;;;11.73;8.20;;;;;;;10.51;97.42;100464.75;4988582;28;20251;-72
2023/10/24 01:07:35;;;;;;;15.20;7.77;;;;;;;10.51;97.24;100468.13;4991230;28;20217;-71
2023/10/24 01:10:01;;;;;;;16.50;8.50;;;;;;;10.50;97.06;100469.25;4988478;28;20212;-72
2023/10/24 01:12:28;;;;;;;17.03;8.13;;;;;;;10.49;97.11;100461.66;4991398;28;20233;-71
2023/10/24 01:14:55;;;;;;;15.13;8.17;;;;;;;10.47;97.47;100464.63;4991776;28;20204;-70
2023/10/24 01:17:21;;;;;;;14.33;8.43;;;;;;;10.46;97.03;100464.94;4986710;28;20698;-71
2023/10/24 01:19:48;;;;;;;14.37;8.30;;;;;;;10.44;97.07;100467.91;4989922;28;20223;-72
2023/10/24 01:22:15;;;;;;;13.37;7.63;;;;;;;10.43;97.46;100470.88;4985293;28;20233;-72
2023/10/24 01:24:42;;;;;;;12.67;8.40;;;;;;;10.43;97.57;100470.88;4994637;28;20210;-72
2023/10/24 01:27:08;;;;;;;14.87;7.83;;;;;;;10.44;97.75;100456.56;4986031;28;20210;-71
2023/10/24 01:29:35;;;;;;;14.77;8.63;;;;;;;10.44;97.35;100446.78;4992390;28;20218;-72
2023/10/24 01:32:01;;;;;;;14.63;8.37;;;;;;;10.45;97.31;100448.34;4985980;28;21448;-72
2023/10/24 01:34:28;;;;;;;15.77;8.53;;;;;;;10.45;97.68;100450.97;4989521;28;20200;-72
2023/10/24 01:36:54;;;;;;;14.73;7.70;;;;;;;10.45;97.13;100443.06;4984270;28;20213;-71
2023/10/24 01:39:22;;;;;;;18.00;8.77;;;;;;;10.47;97.37;100445.38;4992384;28;20213;-72
2023/10/24 01:41:48;;;;;;;14.97;8.33;;;;;;;10.47;97.49;100445.38;4991993;28;20831;-71
2023/10/24 01:44:14;;;;;;;19.40;8.27;;;;;;;10.46;96.75;100439.31;4989146;28;20218;-72
2023/10/24 01:46:41;;;;;;;14.97;8.37;;;;;;;10.47;97.93;100435.59;4985960;28;20214;-71
2023/10/24 01:49:07;;;;;;;16.73;8.00;;;;;;;10.47;97.16;100437.44;4989253;28;20443;-72
2023/10/24 01:51:35;;;;;;;12.93;8.33;;;;;;;10.48;97.12;100442.41;4987882;28;20224;-71
2023/10/24 01:54:01;;;;;;;13.87;8.03;;;;;;;10.48;97.66;100437.13;4997431;28;20648;-72
2023/10/24 01:56:29;;;;;;;14.33;9.80;;;;;;;10.48;98.24;100442.41;4988889;28;20198;-71
2023/10/24 01:58:55;;;;;;;18.13;8.40;;;;;;;10.48;96.78;100447.69;4986951;28;20211;-71
2023/10/24 02:01:21;;;;;;;13.77;8.20;;;;;;;10.49;96.97;100443.16;4984426;28;20220;-71
2023/10/24 02:03:48;;;;;;;14.17;8.40;;;;;;;10.49;97.48;100441.31;4989608;28;20244;-72
2023/10/24 02:06:15;;;;;;;15.67;7.77;;;;;;;10.49;97.09;100437.88;4988839;28;20198;-71
2023/10/24 02:08:41;;;;;;;13.87;7.47;;;;;;;10.49;97.44;100441.31;4983725;28;20214;-70
2023/10/24 02:11:08;;;;;;;12.80;7.60;;;;;;;10.50;96.79;100442.84;4987336;28;20603;-70
2023/10/24 02:13:35;;;;;;;15.03;7.80;;;;;;;10.49;96.66;100453.72;4987942;28;20612;-71
2023/10/24 02:16:02;;;;;;;21.27;8.27;;;;;;;10.49;96.79;100451.88;4988007;28;20211;-71
2023/10/24 02:18:28;;;;;;;15.70;7.93;;;;;;;10.49;97.06;100445.81;4993678;28;22328;-70
2023/10/24 02:20:54;;;;;;;14.57;7.97;;;;;;;10.49;96.73;100432.59;4985884;28;20241;-71
2023/10/24 02:23:20;;;;;;;11.23;8.07;;;;;;;10.50;97.01;100436.81;4987071;28;20226;-72
2023/10/24 02:25:47;;;;;;;12.27;7.67;;;;;;;10.50;97.03;100436.81;4982192;28;20218;-71
2023/10/24 02:28:13;;;;;;;14.03;8.80;;;;;;;10.50;96.27;100424.38;4987903;28;20209;-70
2023/10/24 02:30:41;;;;;;;10.03;8.00;;;;;;;10.50;97.46;100436.81;4986517;28;20262;-72
2023/10/24 02:33:07;;;;;;;11.53;7.93;;;;;;;10.50;96.96;100437.56;5002299;28;20327;-72
2023/10/24 02:35:34;;;;;;;13.63;7.90;;;;;;;10.50;97.64;100440.19;4987134;28;20714;-72
2023/10/24 02:38:00;;;;;;;18.37;9.17;;;;;;;10.51;97.01;100435.69;4990384;28;20210;-72
2023/10/24 02:40:26;;;;;;;11.60;8.03;;;;;;;10.50;96.68;100434.91;5005353;28;20229;-71
2023/10/24 02:42:53;;;;;;;14.37;8.93;;;;;;;10.51;96.93;100435.69;4994013;28;20230;-71
2023/10/24 02:45:19;;;;;;;17.43;9.40;;;;;;;10.50;96.68;100429.63;4988927;28;20230;-71
2023/10/24 02:47:47;;;;;;;17.23;8.60;;;;;;;10.51;96.62;100435.69;4990499;28;20677;-71
2023/10/24 02:50:13;;;;;;;17.67;8.77;;;;;;;10.52;96.48;100434.59;4994235;28;20213;-70
2023/10/24 02:52:39;;;;;;;18.53;7.57;;;;;;;10.52;97.20;100418.75;5005310;28;20224;-71
2023/10/24 02:55:08;;;;;;;12.27;7.87;;;;;;;10.51;96.67;100415.34;4993969;28;20589;-72
2023/10/24 02:57:35;;;;;;;11.97;8.07;;;;;;;10.51;96.78;100404.78;4986966;28;20210;-70
2023/10/24 03:00:01;;;;;;;16.10;8.23;;;;;;;10.52;97.73;100408.19;4989539;28;20207;-71
2023/10/24 03:02:27;;;;;;;13.40;7.83;;;;;;;10.52;96.82;100416.13;4991799;28;20232;-72
2023/10/24 03:04:55;;;;;;;17.43;8.37;;;;;;;10.51;96.82;100422.50;4987797;28;20218;-72
2023/10/24 03:07:23;;;;;;;13.13;7.93;;;;;;;10.51;97.47;100415.34;4994094;28;20298;-71
2023/10/24 03:09:49;;;;;;;11.93;7.53;;;;;;;10.52;97.59;100426.69;4987691;28;20202;-72
2023/10/24 03:12:16;;;;;;;13.57;7.03;;;;;;;10.52;97.04;100424.03;4992779;28;20704;-72
2023/10/24 03:14:42;;;;;;;10.87;7.43;;;;;;;10.53;97.06;100428.22;4989008;28;20210;-71
2023/10/24 03:17:09;;;;;;;13.17;7.70;;;;;;;10.53;96.76;100439.56;5005475;28;20235;-71
2023/10/24 03:19:35;;;;;;;13.40;8.00;;;;;;;10.55;96.84;100426.78;4988769;28;20319;-70
2023/10/24 03:22:03;;;;;;;12.30;6.93;;;;;;;10.56;97.27;100417.00;4989054;28;20230;-70
2023/10/24 03:24:30;;;;;;;14.73;7.93;;;;;;;10.56;97.45;100403.81;4987864;28;20712;-71
2023/10/24 03:26:56;;;;;;;12.20;7.63;;;;;;;10.56;96.72;100386.09;4987712;28;20234;-70
2023/10/24 03:29:23;;;;;;;11.83;7.87;;;;;;;10.57;97.29;100382.34;4991008;28;20739;-71
2023/10/24 03:31:50;;;;;;;14.70;7.60;;;;;;;10.58;97.50;100375.19;4991874;28;20220;-70
2023/10/24 03:34:16;;;;;;;17.37;8.27;;;;;;;10.57;98.34;100371.78;4991422;28;20227;-70
2023/10/24 03:36:42;;;;;;;12.90;8.07;;;;;;;10.57;97.21;100373.66;4990981;28;20207;-72
2023/10/24 03:39:10;;;;;;;13.53;8.60;;;;;;;10.57;98.29;100365.75;4991525;28;20220;-70
2023/10/24 03:41:36;;;;;;;12.30;8.17;;;;;;;10.56;98.49;100346.47;4992131;28;20973;-71
2023/10/24 03:44:03;;;;;;;18.13;7.90;;;;;;;10.55;98.22;100337.03;4991707;28;20263;-71
2023/10/24 03:46:29;;;;;;;13.40;8.60;;;;;;;10.56;98.49;100337.81;4991244;28;20213;-71
2023/10/24 03:48:57;;;;;;;17.30;7.83;;;;;;;10.54;97.06;100340.00;4986425;28;20211;-71
2023/10/24 03:51:24;;;;;;;11.47;8.37;;;;;;;10.53;97.13;100333.97;4990404;28;20630;-70
2023/10/24 03:53:51;;;;;;;11.20;7.63;;;;;;;10.53;97.58;100317.34;4987077;28;20689;-68
2023/10/24 03:56:18;;;;;;;11.13;7.77;;;;;;;10.53;97.79;100333.97;4989860;28;20218;-69
2023/10/24 03:58:45;;;;;;;13.83;8.23;;;;;;;10.52;97.39;100324.50;4988555;28;20203;-69
2023/10/24 04:01:11;;;;;;;14.63;8.17;;;;;;;10.53;97.52;100354.28;4991967;28;20455;-70
2023/10/24 04:03:37;;;;;;;12.93;7.47;;;;;;;10.53;97.56;100362.22;4987810;28;20235;-70
2023/10/24 04:06:10;;;;;;;12.43;8.13;;;;;;;10.54;97.18;100358.47;4989290;28;20223;-70
2023/10/24 04:08:37;;;;;;;14.17;7.90;;;;;;;10.53;96.71;100347.16;4992681;28;20237;-69
2023/10/24 04:11:03;;;;;;;13.10;7.40;;;;;;;10.53;96.73;100355.06;4989025;28;20417;-70
2023/10/24 04:13:31;;;;;;;11.50;8.10;;;;;;;10.53;96.63;100351.66;4989656;28;20258;-70
2023/10/24 04:15:58;;;;;;;12.43;8.40;;;;;;;10.53;97.29;100347.16;4987498;28;20680;-70
2023/10/24 04:18:24;;;;;;;11.07;7.63;;;;;;;10.53;96.80;100360.34;4986459;28;20202;-70
2023/10/24 04:20:50;;;;;;;13.10;8.30;;;;;;;10.53;96.64;100362.22;4984518;28;20199;-70
2023/10/24 04:23:17;;;;;;;10.87;7.93;;;;;;;10.53;96.31;100351.66;4985914;28;20318;-68
2023/10/24 04:25:43;;;;;;;12.10;8.13;;;;;;;10.52;97.20;100350.13;4985897;28;20550;-70
2023/10/24 04:28:09;;;;;;;12.40;7.77;;;;;;;10.51;97.32;100335.38;4987467;28;20215;-70
2023/10/24 04:30:40;;;;;;;15.93;8.50;;;;;;;10.52;96.56;100329.78;4987284;28;20211;-70
2023/10/24 04:33:07;;;;;;;11.13;8.20;;;;;;;10.51;96.42;100330.84;4985082;28;20235;-70
2023/10/24 04:35:33;;;;;;;15.33;7.50;;;;;;;10.52;96.59;100329.00;4985835;28;20243;-69
2023/10/24 04:37:59;;;;;;;15.40;7.90;;;;;;;10.52;96.50;100334.28;4986860;28;20216;-70
2023/10/24 04:40:26;;;;;;;13.77;8.10;;;;;;;10.52;96.95;100334.28;4986839;28;20215;-69
2023/10/24 04:42:52;;;;;;;16.63;8.07;;;;;;;10.53;97.51;100339.25;4998544;28;20235;-70
2023/10/24 04:45:18;;;;;;;13.90;7.50;;;;;;;10.52;97.93;100332.44;4991691;28;20211;-69
2023/10/24 04:47:46;;;;;;;12.07;7.80;;;;;;;10.53;96.85;100341.09;4989603;28;20220;-70
2023/10/24 04:50:13;;;;;;;14.63;8.00;;;;;;;10.54;97.62;100342.63;4985367;28;20247;-70
2023/10/24 04:52:39;;;;;;;13.60;8.17;;;;;;;10.55;97.31;100330.97;4979446;28;20222;-70
2023/10/24 04:55:06;;;;;;;12.83;6.63;;;;;;;10.55;96.84;100333.59;4988563;28;20220;-69
2023/10/24 04:57:32;;;;;;;11.93;7.67;;;;;;;10.55;97.05;100339.66;4987719;28;20787;-68
2023/10/24 04:59:59;;;;;;;17.17;8.47;;;;;;;10.56;96.64;100351.00;4984703;28;20213;-70
2023/10/24 05:02:26;;;;;;;10.43;7.03;;;;;;;10.56;96.52;100345.72;4990299;28;20285;-69
2023/10/24 05:04:53;;;;;;;10.20;7.50;;;;;;;10.56;97.15;100351.75;4986604;28;20678;-70
2023/10/24 05:07:20;;;;;;;10.87;7.60;;;;;;;10.58;96.64;100335.59;4986374;28;20215;-69
2023/10/24 05:09:46;;;;;;;10.30;7.00;;;;;;;10.58;97.09;100330.31;4989060;28;20676;-70
2023/10/24 05:12:12;;;;;;;9.87;7.03;;;;;;;10.57;96.71;100329.53;4987612;28;20525;-68
2023/10/24 05:14:38;;;;;;;11.73;7.40;;;;;;;10.57;96.59;100328.78;4987639;28;20229;-69
2023/10/24 05:17:06;;;;;;;14.13;8.37;;;;;;;10.58;96.28;100325.03;4987384;28;20570;-69
2023/10/24 05:19:32;;;;;;;9.30;6.83;;;;;;;10.57;97.09;100311.06;4990907;28;20370;-70
2023/10/24 05:22:00;;;;;;;9.23;7.00;;;;;;;10.57;96.73;100297.09;4979802;28;20263;-69
2023/10/24 05:24:26;;;;;;;12.43;7.57;;;;;;;10.56;95.97;100293.69;4990930;28;20580;-69
2023/10/24 05:26:52;;;;;;;14.47;7.20;;;;;;;10.56;96.49;100291.03;4987758;28;20217;-70
2023/10/24 05:29:19;;;;;;;13.90;7.77;;;;;;;10.56;96.01;100292.94;4988068;28;20714;-70
2023/10/24 05:31:45;;;;;;;13.13;8.27;;;;;;;10.55;96.28;100292.16;4984490;28;20222;-68
2023/10/24 05:34:11;;;;;;;13.63;7.03;;;;;;;10.55;96.21;100286.88;4989664;28;20231;-71
2023/10/24 05:36:38;;;;;;;9.83;7.13;;;;;;;10.55;96.74;100296.63;4986624;28;20212;-72
2023/10/24 05:39:05;;;;;;;10.27;6.63;;;;;;;10.53;96.44;100277.75;4989432;28;20305;-70
2023/10/24 05:41:32;;;;;;;9.90;7.70;;;;;;;10.52;96.09;100276.19;4987505;28;20216;-69
2023/10/24 05:43:58;;;;;;;12.17;6.63;;;;;;;10.50;96.63;100278.41;4986618;28;20229;-69
2023/10/24 05:46:24;;;;;;;10.63;6.80;;;;;;;10.50;96.42;100284.44;4990179;28;20218;-69
2023/10/24 05:48:51;;;;;;;10.30;7.03;;;;;;;10.50;97.31;100281.81;4986653;28;20222;-70
2023/10/24 05:51:22;;;;;;;10.20;7.27;;;;;;;10.47;96.32;100282.47;4989200;28;20977;-70
2023/10/24 05:53:49;;;;;;;13.10;7.70;;;;;;;10.47;97.47;100276.44;4987801;28;20242;-69
2023/10/24 05:56:17;;;;;;;10.83;7.07;;;;;;;10.44;96.24;100266.50;4987958;28;20207;-70
2023/10/24 05:58:44;;;;;;;12.80;7.27;;;;;;;10.45;96.93;100278.63;4989044;28;20707;-72
2023/10/24 06:01:11;;;;;;;11.47;7.97;;;;;;;10.45;96.87;100279.38;4988474;28;20202;-69
2023/10/24 06:03:37;;;;;;;11.67;7.17;;;;;;;10.43;97.21;100276.31;4981441;28;20233;-69
2023/10/24 06:06:03;;;;;;;12.03;7.80;;;;;;;10.44;97.32;100279.72;4992588;28;20211;-70
2023/10/24 06:08:30;;;;;;;13.17;7.17;;;;;;;10.43;97.21;100278.19;4987715;28;20200;-72
2023/10/24 06:10:56;;;;;;;15.53;7.93;;;;;;;10.43;96.53;100275.53;4986992;28;20217;-72
2023/10/24 06:13:24;;;;;;;13.03;8.17;;;;;;;10.43;96.61;100276.31;4991441;28;20226;-72
2023/10/24 06:15:51;;;;;;;13.43;8.00;;;;;;;10.44;97.52;100266.50;4991116;28;20232;-72
2023/10/24 06:18:17;;;;;;;10.87;7.50;;;;;;;10.44;97.05;100269.94;4991336;28;20699;-72
2023/10/24 06:20:44;;;;;;;12.93;7.67;;;;;;;10.44;96.72;100262.03;4990864;28;20212;-72
2023/10/24 06:23:11;;;;;;;10.73;7.60;;;;;;;10.45;96.62;100258.28;4991973;28;20749;-72
2023/10/24 06:25:37;;;;;;;12.77;7.80;;;;;;;10.45;96.69;100260.91;4989162;28;20241;-72
2023/10/24 06:28:04;;;;;;;12.47;8.77;;;;;;;10.46;96.79;100256.41;4990699;28;20256;-71
2023/10/24 06:30:32;;;;;;;11.90;7.60;;;;;;;10.46;97.06;100243.97;4991166;28;20202;-71
2023/10/24 06:32:58;;;;;;;15.37;8.13;;;;;;;10.47;95.79;100242.09;4986555;28;20238;-70
2023/10/24 06:35:25;;;;;;;17.43;8.37;;;;;;;10.48;96.78;100243.63;4991362;28;20210;-72
2023/10/24 06:37:51;;;;;;;11.53;7.83;;;;;;;10.49;96.06;100243.31;4991804;28;20208;-71
2023/10/24 06:40:18;;;;;;;13.37;7.90;;;;;;;10.49;97.65;100242.53;4991506;28;20217;-70
2023/10/24 06:42:44;;;;;;;12.03;7.93;;;;;;;10.50;97.38;100247.50;4990231;28;20222;-71
2023/10/24 06:45:11;;;;;;;11.17;7.30;;;;;;;10.52;96.76;100255.09;4989486;28;20226;-71
2023/10/24 06:47:40;;;;;;;14.27;7.63;;;;;;;10.53;97.20;100251.34;4992358;28;20212;-72
2023/10/24 06:50:08;;;;;;;13.40;7.70;;;;;;;10.54;97.09;100245.72;4988431;28;20210;-71
2023/10/24 06:52:34;;;;;;;13.70;7.80;;;;;;;10.56;96.39;100248.03;4990339;28;20229;-71
2023/10/24 06:55:03;;;;;;;10.03;7.13;;;;;;;10.58;96.19;100248.47;4990082;28;20223;-71
2023/10/24 06:57:30;;;;;;;11.03;7.10;;;;;;;10.59;96.28;100250.00;4988645;28;20236;-72
2023/10/24 06:59:56;;;;;;;10.53;7.10;;;;;;;10.60;96.02;100251.53;4987672;28;20201;-72
2023/10/24 07:02:22;;;;;;;12.03;7.20;;;;;;;10.61;96.87;100251.22;4993199;28;20452;-71
2023/10/24 07:04:51;;;;;;;12.37;7.47;;;;;;;10.65;96.93;100256.59;4990129;28;20198;-71
2023/10/24 07:07:19;;;;;;;9.33;7.13;;;;;;;10.66;96.16;100260.78;4988354;28;20653;-71
2023/10/24 07:09:45;;;;;;;14.23;8.17;;;;;;;10.69;96.63;100254.81;4990729;28;20558;-71
2023/10/24 07:12:11;;;;;;;9.67;7.47;;;;;;;10.71;95.80;100258.66;4991667;28;20228;-70
2023/10/24 07:14:38;;;;;;;13.47;7.20;;;;;;;10.76;96.28;100255.81;4992780;28;20231;-71
2023/10/24 07:17:04;;;;;;;13.97;7.47;;;;;;;10.78;96.67;100245.69;4986512;28;20970;-70
2023/10/24 07:19:30;;;;;;;9.37;7.37;;;;;;;10.82;95.85;100233.34;4991775;28;20475;-72
2023/10/24 07:21:58;;;;;;;10.30;7.90;;;;;;;10.86;96.27;100230.78;4988255;28;20210;-70
2023/10/24 07:24:24;;;;;;;12.70;7.30;;;;;;;10.89;95.92;100225.63;4990990;28;20197;-72
2023/10/24 07:26:50;;;;;;;11.97;7.77;;;;;;;10.92;96.78;100224.19;4990691;28;20248;-71
2023/10/24 07:29:17;;;;;;;13.03;7.83;;;;;;;10.97;97.21;100208.84;4992671;28;20204;-71
2023/10/24 07:31:43;;;;;;;10.37;7.03;;;;;;;11.00;95.86;100192.34;4993802;28;20746;-71
2023/10/24 07:34:09;;;;;;;9.40;7.10;;;;;;;11.04;96.42;100190.56;4988381;28;20232;-72
2023/10/24 07:36:36;;;;;;;14.93;7.23;;;;;;;11.10;97.47;100191.06;4993372;28;20708;-71
2023/10/24 07:39:05;;;;;;;13.43;7.30;;;;;;;11.12;96.73;100184.34;4989090;28;20216;-71
2023/10/24 07:41:32;;;;;;;11.73;7.70;;;;;;;11.16;96.17;100185.22;4988705;28;20793;-71
2023/10/24 07:43:58;;;;;;;13.17;7.90;;;;;;;11.21;96.53;100176.25;4990611;28;20765;-72
2023/10/24 07:46:24;;;;;;;9.80;7.20;;;;;;;11.25;95.71;100172.63;4993597;28;20204;-72
2023/10/24 07:48:52;;;;;;;10.30;7.23;;;;;;;11.28;96.17;100166.63;4993309;28;20212;-71
2023/10/24 07:51:19;;;;;;;12.03;6.90;;;;;;;11.33;95.84;100158.47;4992294;28;20574;-70
2023/10/24 07:53:46;;;;;;;12.80;7.03;;;;;;;11.38;94.76;100160.09;4985924;28;20703;-71
2023/10/24 07:56:13;;;;;;;15.30;7.60;;;;;;;11.43;96.50;100155.31;4985401;28;20212;-70
2023/10/24 07:58:40;;;;;;;9.63;6.30;;;;;;;11.49;95.44;100158.47;4992698;28;20213;-71
2023/10/24 08:01:06;;;;;;;11.77;6.67;;;;;;;11.55;94.77;100157.13;4990864;28;20208;-71
2023/10/24 08:03:32;;;;;;;9.00;6.23;;;;;;;11.61;94.85;100153.13;4991252;28;20489;-72
2023/10/24 08:05:59;;;;;;;8.97;6.03;;;;;;;11.68;95.59;100148.78;4990871;28;20216;-71
2023/10/24 08:08:26;;;;;;;11.33;6.50;;;;;;;11.77;94.15;100140.66;4989464;28;20204;-71
2023/10/24 08:10:52;;;;;;;10.67;6.20;;;;;;;11.85;93.27;100139.72;4985680;28;20687;-71
2023/10/24 08:13:20;;;;;;;8.93;5.17;;;;;;;11.93;93.78;100126.31;4985923;28;20340;-71
2023/10/24 08:15:50;;;;;;;9.20;6.17;;;;;;;12.03;94.58;100125.00;4996102;28;20840;-71
2023/10/24 08:18:16;;;;;;;9.87;6.00;;;;;;;12.11;94.08;100132.72;4992640;28;20205;-71
2023/10/24 08:20:42;;;;;;;12.30;6.10;;;;;;;12.21;92.95;100131.44;4992789;28;20291;-71
2023/10/24 08:23:08;;;;;;;7.40;5.40;;;;;;;12.28;92.99;100123.66;4989797;28;20295;-71
2023/10/24 08:25:35;;;;;;;8.87;5.77;;;;;;;12.37;93.29;100127.59;4985853;28;20205;-71
2023/10/24 08:28:01;;;;;;;9.17;5.60;;;;;;;12.46;95.19;100130.81;4987097;28;20292;-71
2023/10/24 08:30:31;;;;;;;11.60;5.57;;;;;;;12.54;95.32;100137.81;4990434;28;20211;-72
2023/10/24 08:33:14;;;;;;;10.23;5.20;;;;;;;12.63;93.75;100140.25;4983560;28;20512;-71
2023/10/24 08:35:41;;;;;;;7.93;4.90;;;;;;;12.72;93.40;100146.06;4990574;28;20335;-71
2023/10/24 08:38:07;;;;;;;9.73;5.53;;;;;;;12.81;92.78;100157.25;4990699;28;20213;-72
2023/10/24 08:40:33;;;;;;;10.53;5.57;;;;;;;12.91;94.46;100151.38;4992495;28;20220;-71
2023/10/24 08:43:01;;;;;;;7.33;5.13;;;;;;;13.00;93.62;100144.00;4987951;28;20710;-72
2023/10/24 08:45:31;;;;;;;6.53;4.77;;;;;;;13.09;94.05;100131.31;4988912;28;20197;-71
2023/10/24 08:47:58;;;;;;;7.60;4.93;;;;;;;13.18;92.64;100129.94;4988502;28;20685;-71
2023/10/24 08:50:25;;;;;;;7.67;4.97;;;;;;;13.26;91.64;100131.59;4989918;28;20211;-71
2023/10/24 08:52:52;;;;;;;6.97;4.90;;;;;;;13.36;93.37;100128.34;4991616;28;20233;-70
2023/10/24 08:55:19;;;;;;;9.53;5.40;;;;;;;13.41;91.90;100128.03;4988782;28;20726;-72
2023/10/24 08:57:46;;;;;;;10.07;5.17;;;;;;;13.48;89.27;100128.19;4990213;28;20202;-71
2023/10/24 09:00:16;;;;;;;7.07;4.37;;;;;;;13.54;89.47;100113.50;4986191;28;20215;-70
2023/10/24 09:02:44;;;;;;;8.60;5.00;;;;;;;13.62;90.52;100117.03;4986553;28;20619;-71
2023/10/24 09:05:12;;;;;;;7.67;4.73;;;;;;;13.68;90.25;100121.66;4984091;28;20201;-71
2023/10/24 09:07:39;;;;;;;7.67;4.70;;;;;;;13.74;90.13;100119.47;4987556;28;20218;-71
2023/10/24 09:10:06;;;;;;;7.80;4.30;;;;;;;13.79;89.79;100117.28;4988125;28;20200;-71
2023/10/24 09:12:34;;;;;;;4.87;3.87;;;;;;;13.84;89.94;100127.59;4987289;28;20236;-71
2023/10/24 09:15:01;;;;;;;7.17;4.20;;;;;;;13.90;90.39;100117.41;4982984;28;20229;-71
2023/10/24 09:17:30;;;;;;;7.70;4.83;;;;;;;13.95;90.56;100106.50;4986001;28;20209;-69
2023/10/24 09:19:59;;;;;;;7.07;4.63;;;;;;;14.00;91.32;100106.19;4985664;28;20215;-72
2023/10/24 09:22:29;;;;;;;7.10;4.27;;;;;;;14.04;90.43;100115.75;4975955;28;20249;-70
2023/10/24 09:24:57;;;;;;;6.57;3.97;;;;;;;14.09;90.08;100115.44;4985038;28;20216;-72
2023/10/24 09:27:24;;;;;;;11.27;4.30;;;;;;;14.16;91.62;100122.72;4985680;28;20215;-71
2023/10/24 09:29:51;;;;;;;7.83;4.37;;;;;;;14.21;88.67;100114.47;4979455;28;20286;-72
2023/10/24 09:32:19;;;;;;;7.40;3.97;;;;;;;14.29;90.00;100118.75;4982723;28;20228;-72
2023/10/24 09:34:47;;;;;;;7.53;4.27;;;;;;;14.33;89.05;100106.28;4986455;28;20299;-72
2023/10/24 09:37:15;;;;;;;7.67;3.67;;;;;;;14.38;89.55;100101.41;4985029;28;20621;-72
2023/10/24 09:39:55;;;;;;;5.93;4.60;;;;;;;14.45;89.69;100117.44;4984412;28;20208;-71
2023/10/24 09:42:25;;;;;;;6.00;4.40;;;;;;;14.49;89.16;100112.16;4988258;28;20232;-72
2023/10/24 09:44:54;;;;;;;7.57;4.00;;;;;;;14.52;89.38;100122.81;4989441;28;20268;-73
2023/10/24 09:47:20;;;;;;;6.27;3.37;;;;;;;14.56;89.20;100117.56;4991323;28;20213;-72
2023/10/24 09:49:48;;;;;;;6.70;3.70;;;;;;;14.59;89.19;100119.50;4992171;28;20224;-71
2023/10/24 09:52:17;;;;;;;3.73;3.13;;;;;;;14.61;89.23;100119.88;4991017;28;20493;-72
2023/10/24 09:54:45;;;;;;;5.97;3.50;;;;;;;14.61;90.56;100120.66;4994582;28;20235;-71
2023/10/24 09:57:12;;;;;;;3.87;3.17;;;;;;;14.62;89.16;100122.19;4988106;28;20216;-71
2023/10/24 09:59:40;;;;;;;5.20;3.20;;;;;;;14.63;89.01;100112.31;4993269;28;20216;-72
2023/10/24 10:02:09;;;;;;;6.83;3.67;;;;;;;14.63;88.35;100112.31;4989649;28;20263;-71
2023/10/24 10:04:37;;;;;;;4.33;3.10;;;;;;;14.64;89.72;100111.19;4993113;28;20212;-71
2023/10/24 10:07:04;;;;;;;6.43;3.77;;;;;;;14.62;88.02;100106.25;4993744;28;20848;-69
2023/10/24 10:09:34;;;;;;;7.40;3.73;;;;;;;14.62;88.65;100103.59;4984020;28;20216;-72
2023/10/24 10:12:02;;;;;;;5.27;3.30;;;;;;;14.61;88.08;100091.44;4988421;28;20224;-72
2023/10/24 10:14:36;;;;;;;5.70;3.53;;;;;;;14.62;88.13;100094.84;4991641;28;20588;-72
2023/10/24 10:17:12;;;;;;;4.97;3.33;;;;;;;14.62;88.16;100098.28;4988384;28;20675;-72
2023/10/24 10:19:53;;;;;;;8.90;3.70;;;;;;;14.62;88.66;100076.25;4985427;28;20478;-70
2023/10/24 10:22:35;;;;;;;8.70;4.03;;;;;;;14.64;89.18;100071.34;4986288;28;21203;-71
2023/10/24 10:25:35;;;;;;;6.00;4.30;;;;;;;14.66;88.70;100066.41;4988506;28;20211;-72
2023/10/24 10:28:16;;;;;;;7.67;5.07;;;;;;;14.69;88.96;100053.16;4985528;28;20204;-71
2023/10/24 10:30:54;;;;;;;6.43;4.67;;;;;;;14.71;88.97;100047.50;4992790;28;20201;-71
2023/10/24 10:33:23;;;;;;;8.10;5.70;;;;;;;14.75;88.10;100056.25;4988223;28;21321;-71
2023/10/24 10:35:54;;;;;;;7.50;5.43;;;;;;;14.78;88.12;100042.22;4988081;28;20224;-71
2023/10/24 10:38:39;;;;;;;7.43;4.77;;;;;;;14.82;88.51;100033.19;4991412;28;20710;-72
2023/10/24 10:41:36;;;;;;;6.37;3.90;;;;;;;14.88;88.52;100038.91;4987848;28;20201;-71
2023/10/24 10:44:05;;;;;;;6.07;4.67;;;;;;;14.93;88.36;100034.03;4989252;28;20224;-70
2023/10/24 10:46:33;;;;;;;9.20;4.97;;;;;;;14.97;89.06;100034.81;4991616;28;20267;-72
2023/10/24 10:49:02;;;;;;;9.77;6.67;;;;;;;15.00;88.79;100025.34;4989880;28;20221;-70
2023/10/24 10:51:30;;;;;;;9.07;5.23;;;;;;;15.02;89.19;100023.84;4994467;28;20219;-71
2023/10/24 10:54:01;;;;;;;6.70;4.30;;;;;;;15.03;88.59;100019.28;4990957;28;20236;-71
2023/10/24 10:56:30;;;;;;;6.17;3.57;;;;;;;15.04;87.96;100021.59;4992895;28;20316;-71
2023/10/24 10:59:14;;;;;;;5.83;4.33;;;;;;;15.05;87.86;100017.03;4988744;28;20621;-72
2023/10/24 11:01:50;;;;;;;5.67;4.03;;;;;;;15.04;88.07;100018.91;4988068;28;20209;-71
2023/10/24 11:04:17;;;;;;;7.10;5.10;;;;;;;15.05;88.20;100025.03;4978769;23;20564;-71
2023/10/24 11:06:51;;;;;;;12.53;4.63;;;;;;;15.06;88.00;100029.19;4954960;28;20203;-70
2023/10/24 11:09:20;;;;;;;7.77;4.90;;;;;;;15.06;87.98;100023.88;4958025;28;20252;-71
2023/10/24 11:11:47;;;;;;;7.00;4.50;;;;;;;15.07;87.56;100020.09;4958367;28;20220;-71
2023/10/24 11:14:16;;;;;;;6.23;4.30;;;;;;;15.07;86.08;100009.44;4950797;28;20237;-71
2023/10/24 11:16:43;;;;;;;6.23;4.40;;;;;;;15.10;87.40;100014.00;4950365;28;20584;-71
2023/10/24 11:19:17;;;;;;;7.07;4.73;;;;;;;15.13;89.77;100019.38;4943938;28;20207;-71
2023/10/24 11:21:45;;;;;;;7.13;4.60;;;;;;;15.15;88.14;100029.63;4952999;28;20206;-71